Terminal Aerodrome Forecast
Issued by NWS Cleveland, OH

Home | Current Version | Previous Version | Graphics & Text | Print | Product List | Glossary On
Versions: 1 2 3 4 5 6 7 8 9 10 11 12 13 14 15 16 17 18 19 20 21 22 23 24 25 26 27 28 29 30
000
FTUS41 KCLE 210912 AAA
TAFCLE
TAF AMD
KCLE 210912Z 2109/2212 20012G20KT P6SM BKN250 WS020/22045KT
     FM211500 21018G30KT P6SM SCT100 BKN250
     FM212300 25011G20KT P6SM SCT025 OVC050
      TEMPO 2200/2203 5SM SHRA SCT015 OVC025
     FM220300 30015G25KT P6SM OVC015
     FM220600 30011G21KT P6SM SCT015 OVC035=

USA.gov is the U.S. government's official web portal to all federal, state and local government web resources and services.